sensor_id;sensor_type;location;lat;lon;timestamp;P1;durP1;ratioP1;P2;durP2;ratioP2
51066;SDS011;37112;45.892;-123.962;2022-11-20T00:01:36;14.10;;;8.50;;
51066;SDS011;37112;45.892;-123.962;2022-11-20T00:03:50;13.70;;;8.90;;
51066;SDS011;37112;45.892;-123.962;2022-11-20T00:06:04;14.90;;;8.50;;
51066;SDS011;37112;45.892;-123.962;2022-11-20T00:08:20;12.30;;;8.10;;
51066;SDS011;37112;45.892;-123.962;2022-11-20T00:10:35;13.00;;;9.10;;
51066;SDS011;37112;45.892;-123.962;2022-11-20T00:12:49;15.80;;;9.10;;
51066;SDS011;37112;45.892;-123.962;2022-11-20T00:15:02;11.50;;;7.80;;
51066;SDS011;37112;45.892;-123.962;2022-11-20T00:17:16;11.90;;;7.60;;
51066;SDS011;37112;45.892;-123.962;2022-11-20T00:19:30;15.70;;;7.50;;
51066;SDS011;37112;45.892;-123.962;2022-11-20T00:21:43;11.20;;;6.20;;
51066;SDS011;37112;45.892;-123.962;2022-11-20T00:23:59;7.10;;;5.50;;
51066;SDS011;37112;45.892;-123.962;2022-11-20T00:26:13;9.30;;;5.40;;
51066;SDS011;37112;45.892;-123.962;2022-11-20T00:28:27;7.80;;;5.00;;
51066;SDS011;37112;45.892;-123.962;2022-11-20T00:30:40;6.20;;;4.70;;
51066;SDS011;37112;45.892;-123.962;2022-11-20T00:32:55;9.70;;;4.90;;
51066;SDS011;37112;45.892;-123.962;2022-11-20T00:35:09;9.00;;;4.90;;
51066;SDS011;37112;45.892;-123.962;2022-11-20T00:37:22;11.30;;;5.00;;
51066;SDS011;37112;45.892;-123.962;2022-11-20T00:39:35;7.60;;;4.80;;
51066;SDS011;37112;45.892;-123.962;2022-11-20T00:41:48;10.80;;;6.10;;
51066;SDS011;37112;45.892;-123.962;2022-11-20T00:44:02;9.60;;;5.70;;
51066;SDS011;37112;45.892;-123.962;2022-11-20T00:46:16;8.90;;;5.70;;
51066;SDS011;37112;45.892;-123.962;2022-11-20T00:48:30;9.00;;;4.80;;
51066;SDS011;37112;45.892;-123.962;2022-11-20T00:50:44;7.00;;;5.20;;
51066;SDS011;37112;45.892;-123.962;2022-11-20T00:52:57;5.20;;;4.70;;
51066;SDS011;37112;45.892;-123.962;2022-11-20T00:55:10;7.80;;;4.80;;
51066;SDS011;37112;45.892;-123.962;2022-11-20T00:57:24;7.10;;;5.00;;
51066;SDS011;37112;45.892;-123.962;2022-11-20T00:59:37;8.90;;;5.60;;
51066;SDS011;37112;45.892;-123.962;2022-11-20T01:01:50;7.70;;;4.80;;
51066;SDS011;37112;45.892;-123.962;2022-11-20T01:04:04;6.70;;;4.90;;
51066;SDS011;37112;45.892;-123.962;2022-11-20T01:06:17;7.50;;;4.90;;
51066;SDS011;37112;45.892;-123.962;2022-11-20T01:08:33;5.00;;;4.50;;
51066;SDS011;37112;45.892;-123.962;2022-11-20T01:10:47;7.30;;;5.00;;
51066;SDS011;37112;45.892;-123.962;2022-11-20T01:13:00;7.50;;;5.00;;
51066;SDS011;37112;45.892;-123.962;2022-11-20T01:15:31;10.60;;;5.40;;
51066;SDS011;37112;45.892;-123.962;2022-11-20T01:17:48;8.00;;;5.50;;
51066;SDS011;37112;45.892;-123.962;2022-11-20T01:20:01;6.00;;;5.00;;
51066;SDS011;37112;45.892;-123.962;2022-11-20T01:22:15;7.90;;;4.90;;
51066;SDS011;37112;45.892;-123.962;2022-11-20T01:24:29;6.50;;;5.00;;
51066;SDS011;37112;45.892;-123.962;2022-11-20T01:26:43;7.10;;;5.50;;
51066;SDS011;37112;45.892;-123.962;2022-11-20T01:28:58;6.60;;;5.30;;
51066;SDS011;37112;45.892;-123.962;2022-11-20T01:31:13;7.90;;;5.60;;
51066;SDS011;37112;45.892;-123.962;2022-11-20T01:33:27;7.10;;;5.40;;
51066;SDS011;37112;45.892;-123.962;2022-11-20T01:35:40;9.50;;;5.50;;
51066;SDS011;37112;45.892;-123.962;2022-11-20T01:37:54;7.40;;;5.30;;
51066;SDS011;37112;45.892;-123.962;2022-11-20T01:40:08;8.10;;;5.20;;
51066;SDS011;37112;45.892;-123.962;2022-11-20T01:42:22;10.30;;;5.40;;
51066;SDS011;37112;45.892;-123.962;2022-11-20T01:44:54;7.30;;;5.20;;
51066;SDS011;37112;45.892;-123.962;2022-11-20T01:47:08;7.30;;;5.40;;
51066;SDS011;37112;45.892;-123.962;2022-11-20T01:49:24;6.90;;;5.00;;
51066;SDS011;37112;45.892;-123.962;2022-11-20T01:51:43;6.30;;;5.00;;
51066;SDS011;37112;45.892;-123.962;2022-11-20T01:54:02;8.20;;;5.70;;
51066;SDS011;37112;45.892;-123.962;2022-11-20T01:56:18;7.70;;;5.40;;
51066;SDS011;37112;45.892;-123.962;2022-11-20T01:58:33;6.40;;;4.90;;
51066;SDS011;37112;45.892;-123.962;2022-11-20T02:00:51;8.60;;;6.30;;
51066;SDS011;37112;45.892;-123.962;2022-11-20T02:03:05;8.70;;;6.30;;
51066;SDS011;37112;45.892;-123.962;2022-11-20T02:05:22;11.20;;;6.40;;
51066;SDS011;37112;45.892;-123.962;2022-11-20T02:07:39;7.90;;;5.90;;
51066;SDS011;37112;45.892;-123.962;2022-11-20T02:09:53;9.10;;;6.20;;
51066;SDS011;37112;45.892;-123.962;2022-11-20T02:12:06;9.90;;;6.60;;
51066;SDS011;37112;45.892;-123.962;2022-11-20T02:14:40;9.00;;;6.20;;
51066;SDS011;37112;45.892;-123.962;2022-11-20T02:16:54;6.40;;;5.20;;
51066;SDS011;37112;45.892;-123.962;2022-11-20T02:19:09;9.30;;;5.80;;
51066;SDS011;37112;45.892;-123.962;2022-11-20T02:21:31;9.80;;;5.90;;
51066;SDS011;37112;45.892;-123.962;2022-11-20T02:26:22;8.70;;;6.10;;
51066;SDS011;37112;45.892;-123.962;2022-11-20T02:28:52;10.90;;;7.10;;
51066;SDS011;37112;45.892;-123.962;2022-11-20T02:31:15;8.40;;;6.70;;
51066;SDS011;37112;45.892;-123.962;2022-11-20T02:33:57;12.50;;;6.60;;
51066;SDS011;37112;45.892;-123.962;2022-11-20T02:36:15;10.50;;;6.50;;
51066;SDS011;37112;45.892;-123.962;2022-11-20T02:38:29;7.30;;;6.30;;
51066;SDS011;37112;45.892;-123.962;2022-11-20T02:40:42;10.00;;;7.30;;
51066;SDS011;37112;45.892;-123.962;2022-11-20T02:43:01;13.30;;;8.80;;
51066;SDS011;37112;45.892;-123.962;2022-11-20T02:45:14;11.90;;;8.80;;
51066;SDS011;37112;45.892;-123.962;2022-11-20T02:47:28;11.60;;;9.40;;
51066;SDS011;37112;45.892;-123.962;2022-11-20T02:49:41;10.00;;;7.30;;
51066;SDS011;37112;45.892;-123.962;2022-11-20T02:51:55;13.10;;;8.70;;
51066;SDS011;37112;45.892;-123.962;2022-11-20T02:54:08;13.60;;;9.90;;
51066;SDS011;37112;45.892;-123.962;2022-11-20T02:56:21;10.70;;;8.00;;
51066;SDS011;37112;45.892;-123.962;2022-11-20T02:58:35;10.70;;;8.50;;
51066;SDS011;37112;45.892;-123.962;2022-11-20T03:00:49;10.70;;;7.70;;
51066;SDS011;37112;45.892;-123.962;2022-11-20T03:03:02;10.00;;;7.90;;
51066;SDS011;37112;45.892;-123.962;2022-11-20T03:05:16;13.40;;;7.70;;
51066;SDS011;37112;45.892;-123.962;2022-11-20T03:07:29;12.70;;;6.90;;
51066;SDS011;37112;45.892;-123.962;2022-11-20T03:09:42;9.60;;;6.50;;
51066;SDS011;37112;45.892;-123.962;2022-11-20T03:11:56;12.10;;;8.10;;
51066;SDS011;37112;45.892;-123.962;2022-11-20T03:14:09;8.60;;;7.20;;
51066;SDS011;37112;45.892;-123.962;2022-11-20T03:16:23;12.30;;;7.40;;
51066;SDS011;37112;45.892;-123.962;2022-11-20T03:18:36;9.40;;;6.80;;
51066;SDS011;37112;45.892;-123.962;2022-11-20T03:20:50;10.60;;;8.70;;
51066;SDS011;37112;45.892;-123.962;2022-11-20T03:23:08;7.70;;;6.10;;
51066;SDS011;37112;45.892;-123.962;2022-11-20T03:25:22;13.20;;;8.20;;
51066;SDS011;37112;45.892;-123.962;2022-11-20T03:27:35;11.10;;;8.40;;
51066;SDS011;37112;45.892;-123.962;2022-11-20T03:29:48;10.60;;;8.50;;
51066;SDS011;37112;45.892;-123.962;2022-11-20T03:32:01;14.90;;;10.30;;
51066;SDS011;37112;45.892;-123.962;2022-11-20T03:34:14;11.80;;;9.80;;
51066;SDS011;37112;45.892;-123.962;2022-11-20T03:36:29;12.20;;;9.40;;
51066;SDS011;37112;45.892;-123.962;2022-11-20T03:38:43;14.20;;;10.50;;
51066;SDS011;37112;45.892;-123.962;2022-11-20T03:40:59;14.10;;;8.80;;
51066;SDS011;37112;45.892;-123.962;2022-11-20T03:43:14;12.80;;;8.40;;
51066;SDS011;37112;45.892;-123.962;2022-11-20T03:45:27;14.50;;;9.40;;
51066;SDS011;37112;45.892;-123.962;2022-11-20T03:47:40;12.10;;;8.40;;
51066;SDS011;37112;45.892;-123.962;2022-11-20T03:49:54;11.20;;;7.80;;
51066;SDS011;37112;45.892;-123.962;2022-11-20T03:52:07;12.30;;;9.10;;
51066;SDS011;37112;45.892;-123.962;2022-11-20T03:54:20;17.00;;;9.80;;
51066;SDS011;37112;45.892;-123.962;2022-11-20T03:56:35;11.90;;;9.00;;
51066;SDS011;37112;45.892;-123.962;2022-11-20T03:58:49;14.90;;;9.90;;
51066;SDS011;37112;45.892;-123.962;2022-11-20T04:01:06;14.00;;;9.80;;
51066;SDS011;37112;45.892;-123.962;2022-11-20T04:03:20;9.50;;;8.50;;
51066;SDS011;37112;45.892;-123.962;2022-11-20T04:05:34;13.80;;;9.90;;
51066;SDS011;37112;45.892;-123.962;2022-11-20T04:07:48;12.30;;;9.70;;
51066;SDS011;37112;45.892;-123.962;2022-11-20T04:10:01;12.90;;;9.50;;
51066;SDS011;37112;45.892;-123.962;2022-11-20T04:12:16;17.10;;;11.10;;
51066;SDS011;37112;45.892;-123.962;2022-11-20T04:14:30;12.80;;;9.20;;
51066;SDS011;37112;45.892;-123.962;2022-11-20T04:16:44;15.90;;;9.50;;
51066;SDS011;37112;45.892;-123.962;2022-11-20T04:18:57;15.20;;;10.90;;
51066;SDS011;37112;45.892;-123.962;2022-11-20T04:21:11;16.00;;;10.90;;
51066;SDS011;37112;45.892;-123.962;2022-11-20T04:23:25;11.70;;;10.00;;
51066;SDS011;37112;45.892;-123.962;2022-11-20T04:25:39;16.30;;;10.90;;
51066;SDS011;37112;45.892;-123.962;2022-11-20T04:27:52;17.90;;;11.90;;
51066;SDS011;37112;45.892;-123.962;2022-11-20T04:30:06;15.50;;;11.50;;
51066;SDS011;37112;45.892;-123.962;2022-11-20T04:32:20;14.20;;;10.60;;
51066;SDS011;37112;45.892;-123.962;2022-11-20T04:34:34;17.50;;;12.50;;
51066;SDS011;37112;45.892;-123.962;2022-11-20T04:36:48;16.00;;;10.50;;
51066;SDS011;37112;45.892;-123.962;2022-11-20T04:39:02;15.60;;;12.00;;
51066;SDS011;37112;45.892;-123.962;2022-11-20T04:41:17;13.30;;;10.90;;
51066;SDS011;37112;45.892;-123.962;2022-11-20T04:43:31;20.00;;;12.80;;
51066;SDS011;37112;45.892;-123.962;2022-11-20T04:45:44;14.90;;;10.70;;
51066;SDS011;37112;45.892;-123.962;2022-11-20T04:48:04;14.90;;;11.90;;
51066;SDS011;37112;45.892;-123.962;2022-11-20T04:50:17;16.70;;;11.50;;
51066;SDS011;37112;45.892;-123.962;2022-11-20T04:52:31;15.50;;;11.10;;
51066;SDS011;37112;45.892;-123.962;2022-11-20T04:54:44;13.50;;;9.00;;
51066;SDS011;37112;45.892;-123.962;2022-11-20T04:57:00;14.10;;;10.70;;
51066;SDS011;37112;45.892;-123.962;2022-11-20T04:59:20;13.10;;;10.10;;
51066;SDS011;37112;45.892;-123.962;2022-11-20T05:01:34;15.90;;;11.20;;
51066;SDS011;37112;45.892;-123.962;2022-11-20T05:03:47;21.10;;;13.60;;
51066;SDS011;37112;45.892;-123.962;2022-11-20T05:06:02;11.60;;;9.50;;
51066;SDS011;37112;45.892;-123.962;2022-11-20T05:08:16;14.90;;;11.10;;
51066;SDS011;37112;45.892;-123.962;2022-11-20T05:10:29;13.30;;;8.40;;
51066;SDS011;37112;45.892;-123.962;2022-11-20T05:12:43;15.10;;;10.70;;
51066;SDS011;37112;45.892;-123.962;2022-11-20T05:14:56;16.40;;;11.30;;
51066;SDS011;37112;45.892;-123.962;2022-11-20T05:17:11;14.00;;;9.70;;
51066;SDS011;37112;45.892;-123.962;2022-11-20T05:19:25;10.70;;;7.50;;
51066;SDS011;37112;45.892;-123.962;2022-11-20T05:21:38;13.40;;;9.60;;
51066;SDS011;37112;45.892;-123.962;2022-11-20T05:23:51;15.90;;;10.80;;
51066;SDS011;37112;45.892;-123.962;2022-11-20T05:26:06;15.10;;;10.00;;
51066;SDS011;37112;45.892;-123.962;2022-11-20T05:28:23;16.10;;;10.00;;
51066;SDS011;37112;45.892;-123.962;2022-11-20T05:30:37;17.70;;;11.50;;
51066;SDS011;37112;45.892;-123.962;2022-11-20T05:32:50;14.50;;;8.90;;
51066;SDS011;37112;45.892;-123.962;2022-11-20T05:35:04;13.80;;;9.30;;
51066;SDS011;37112;45.892;-123.962;2022-11-20T05:37:19;11.70;;;9.70;;
51066;SDS011;37112;45.892;-123.962;2022-11-20T05:39:32;15.30;;;9.80;;
51066;SDS011;37112;45.892;-123.962;2022-11-20T05:41:45;16.40;;;9.00;;
51066;SDS011;37112;45.892;-123.962;2022-11-20T05:44:19;14.70;;;10.20;;
51066;SDS011;37112;45.892;-123.962;2022-11-20T05:46:32;19.90;;;11.00;;
51066;SDS011;37112;45.892;-123.962;2022-11-20T05:48:46;18.60;;;10.20;;
51066;SDS011;37112;45.892;-123.962;2022-11-20T05:50:59;15.20;;;10.10;;
51066;SDS011;37112;45.892;-123.962;2022-11-20T05:53:14;13.10;;;8.60;;
51066;SDS011;37112;45.892;-123.962;2022-11-20T05:55:28;14.80;;;10.20;;
51066;SDS011;37112;45.892;-123.962;2022-11-20T05:57:41;12.70;;;8.50;;
51066;SDS011;37112;45.892;-123.962;2022-11-20T05:59:55;16.70;;;10.60;;
51066;SDS011;37112;45.892;-123.962;2022-11-20T06:02:09;17.80;;;10.50;;
51066;SDS011;37112;45.892;-123.962;2022-11-20T06:04:22;14.20;;;9.90;;
51066;SDS011;37112;45.892;-123.962;2022-11-20T06:06:36;13.80;;;9.50;;
51066;SDS011;37112;45.892;-123.962;2022-11-20T06:08:49;16.60;;;9.70;;
51066;SDS011;37112;45.892;-123.962;2022-11-20T06:11:05;13.40;;;8.70;;
51066;SDS011;37112;45.892;-123.962;2022-11-20T06:13:19;20.40;;;10.30;;
51066;SDS011;37112;45.892;-123.962;2022-11-20T06:15:33;16.30;;;10.20;;
51066;SDS011;37112;45.892;-123.962;2022-11-20T06:17:46;24.10;;;12.10;;
51066;SDS011;37112;45.892;-123.962;2022-11-20T06:20:01;29.40;;;16.80;;
51066;SDS011;37112;45.892;-123.962;2022-11-20T06:22:15;27.10;;;15.60;;
51066;SDS011;37112;45.892;-123.962;2022-11-20T06:24:29;14.80;;;10.10;;
51066;SDS011;37112;45.892;-123.962;2022-11-20T06:26:42;15.30;;;8.90;;
51066;SDS011;37112;45.892;-123.962;2022-11-20T06:28:56;10.40;;;7.60;;
51066;SDS011;37112;45.892;-123.962;2022-11-20T06:31:09;15.80;;;9.90;;
51066;SDS011;37112;45.892;-123.962;2022-11-20T06:33:24;19.10;;;10.50;;
51066;SDS011;37112;45.892;-123.962;2022-11-20T06:35:38;17.70;;;9.40;;
51066;SDS011;37112;45.892;-123.962;2022-11-20T06:37:51;10.60;;;7.80;;
51066;SDS011;37112;45.892;-123.962;2022-11-20T06:40:06;12.10;;;7.70;;
51066;SDS011;37112;45.892;-123.962;2022-11-20T06:42:21;12.20;;;7.80;;
51066;SDS011;37112;45.892;-123.962;2022-11-20T06:44:34;12.20;;;8.40;;
51066;SDS011;37112;45.892;-123.962;2022-11-20T06:46:48;9.80;;;7.10;;
51066;SDS011;37112;45.892;-123.962;2022-11-20T06:49:01;7.70;;;5.10;;
51066;SDS011;37112;45.892;-123.962;2022-11-20T06:51:14;11.70;;;7.80;;
51066;SDS011;37112;45.892;-123.962;2022-11-20T06:53:29;11.00;;;8.60;;
51066;SDS011;37112;45.892;-123.962;2022-11-20T06:55:43;12.50;;;7.10;;
51066;SDS011;37112;45.892;-123.962;2022-11-20T06:57:57;11.20;;;7.60;;
51066;SDS011;37112;45.892;-123.962;2022-11-20T07:00:11;11.00;;;7.00;;
51066;SDS011;37112;45.892;-123.962;2022-11-20T07:02:26;12.80;;;8.50;;
51066;SDS011;37112;45.892;-123.962;2022-11-20T07:04:39;11.70;;;7.80;;
51066;SDS011;37112;45.892;-123.962;2022-11-20T07:06:52;7.90;;;5.60;;
51066;SDS011;37112;45.892;-123.962;2022-11-20T07:09:06;10.80;;;8.60;;
51066;SDS011;37112;45.892;-123.962;2022-11-20T07:11:19;13.20;;;7.80;;
51066;SDS011;37112;45.892;-123.962;2022-11-20T07:13:33;8.30;;;6.00;;
51066;SDS011;37112;45.892;-123.962;2022-11-20T07:15:46;10.50;;;6.40;;
51066;SDS011;37112;45.892;-123.962;2022-11-20T07:18:00;6.90;;;5.10;;
51066;SDS011;37112;45.892;-123.962;2022-11-20T07:20:14;10.30;;;7.20;;
51066;SDS011;37112;45.892;-123.962;2022-11-20T07:22:27;7.60;;;5.60;;
51066;SDS011;37112;45.892;-123.962;2022-11-20T07:24:40;9.90;;;5.80;;
51066;SDS011;37112;45.892;-123.962;2022-11-20T07:26:54;10.10;;;6.70;;
51066;SDS011;37112;45.892;-123.962;2022-11-20T07:29:07;9.40;;;5.70;;
51066;SDS011;37112;45.892;-123.962;2022-11-20T07:31:21;5.50;;;5.00;;
51066;SDS011;37112;45.892;-123.962;2022-11-20T07:33:34;8.50;;;6.10;;
51066;SDS011;37112;45.892;-123.962;2022-11-20T07:35:47;11.40;;;6.10;;
51066;SDS011;37112;45.892;-123.962;2022-11-20T07:38:01;8.70;;;5.30;;
51066;SDS011;37112;45.892;-123.962;2022-11-20T07:40:14;8.20;;;5.90;;
51066;SDS011;37112;45.892;-123.962;2022-11-20T07:42:28;7.00;;;5.20;;
51066;SDS011;37112;45.892;-123.962;2022-11-20T07:44:41;8.10;;;5.00;;
51066;SDS011;37112;45.892;-123.962;2022-11-20T07:46:54;10.20;;;5.80;;
51066;SDS011;37112;45.892;-123.962;2022-11-20T07:49:07;7.10;;;4.90;;
51066;SDS011;37112;45.892;-123.962;2022-11-20T07:51:21;8.00;;;5.50;;
51066;SDS011;37112;45.892;-123.962;2022-11-20T07:53:34;11.70;;;6.20;;
51066;SDS011;37112;45.892;-123.962;2022-11-20T07:55:47;6.00;;;4.40;;
51066;SDS011;37112;45.892;-123.962;2022-11-20T07:58:01;9.00;;;5.20;;
51066;SDS011;37112;45.892;-123.962;2022-11-20T08:00:15;8.70;;;5.60;;
51066;SDS011;37112;45.892;-123.962;2022-11-20T08:02:28;9.00;;;6.00;;
51066;SDS011;37112;45.892;-123.962;2022-11-20T08:04:42;5.80;;;4.90;;
51066;SDS011;37112;45.892;-123.962;2022-11-20T08:06:55;7.30;;;5.80;;
51066;SDS011;37112;45.892;-123.962;2022-11-20T08:09:08;7.50;;;5.30;;
51066;SDS011;37112;45.892;-123.962;2022-11-20T08:11:22;8.90;;;5.30;;
51066;SDS011;37112;45.892;-123.962;2022-11-20T08:13:51;7.00;;;4.90;;
51066;SDS011;37112;45.892;-123.962;2022-11-20T08:16:23;5.70;;;4.10;;
51066;SDS011;37112;45.892;-123.962;2022-11-20T08:18:36;5.50;;;4.30;;
51066;SDS011;37112;45.892;-123.962;2022-11-20T08:20:50;9.10;;;5.60;;
51066;SDS011;37112;45.892;-123.962;2022-11-20T08:23:04;5.50;;;3.70;;
51066;SDS011;37112;45.892;-123.962;2022-11-20T08:25:17;6.50;;;4.30;;
51066;SDS011;37112;45.892;-123.962;2022-11-20T08:27:31;8.30;;;4.50;;
51066;SDS011;37112;45.892;-123.962;2022-11-20T08:29:44;5.80;;;4.30;;
51066;SDS011;37112;45.892;-123.962;2022-11-20T08:31:58;5.60;;;3.70;;
51066;SDS011;37112;45.892;-123.962;2022-11-20T08:34:15;5.00;;;3.40;;
51066;SDS011;37112;45.892;-123.962;2022-11-20T08:36:28;6.10;;;3.90;;
51066;SDS011;37112;45.892;-123.962;2022-11-20T08:38:46;9.40;;;4.40;;
51066;SDS011;37112;45.892;-123.962;2022-11-20T08:41:00;6.50;;;3.80;;
51066;SDS011;37112;45.892;-123.962;2022-11-20T08:43:30;8.60;;;4.60;;
51066;SDS011;37112;45.892;-123.962;2022-11-20T08:45:44;6.80;;;4.50;;
51066;SDS011;37112;45.892;-123.962;2022-11-20T08:48:01;7.10;;;4.70;;
51066;SDS011;37112;45.892;-123.962;2022-11-20T08:50:16;8.00;;;3.80;;
51066;SDS011;37112;45.892;-123.962;2022-11-20T08:52:29;6.00;;;4.50;;
51066;SDS011;37112;45.892;-123.962;2022-11-20T08:54:45;4.90;;;3.70;;
51066;SDS011;37112;45.892;-123.962;2022-11-20T08:56:59;5.70;;;4.30;;
51066;SDS011;37112;45.892;-123.962;2022-11-20T08:59:12;5.50;;;4.10;;
51066;SDS011;37112;45.892;-123.962;2022-11-20T09:01:46;7.90;;;4.10;;
51066;SDS011;37112;45.892;-123.962;2022-11-20T09:04:00;6.00;;;4.20;;
51066;SDS011;37112;45.892;-123.962;2022-11-20T09:06:13;6.80;;;3.70;;
51066;SDS011;37112;45.892;-123.962;2022-11-20T09:08:27;5.80;;;4.40;;
51066;SDS011;37112;45.892;-123.962;2022-11-20T09:10:41;8.00;;;4.60;;
51066;SDS011;37112;45.892;-123.962;2022-11-20T09:12:54;5.60;;;3.80;;
51066;SDS011;37112;45.892;-123.962;2022-11-20T09:15:09;5.60;;;3.70;;
51066;SDS011;37112;45.892;-123.962;2022-11-20T09:17:23;6.30;;;4.70;;
51066;SDS011;37112;45.892;-123.962;2022-11-20T09:19:36;5.70;;;4.10;;
51066;SDS011;37112;45.892;-123.962;2022-11-20T09:21:50;5.80;;;3.90;;
51066;SDS011;37112;45.892;-123.962;2022-11-20T09:24:06;6.50;;;4.30;;
51066;SDS011;37112;45.892;-123.962;2022-11-20T09:26:20;6.20;;;4.20;;
51066;SDS011;37112;45.892;-123.962;2022-11-20T09:28:33;8.40;;;6.70;;
51066;SDS011;37112;45.892;-123.962;2022-11-20T09:30:47;6.70;;;3.90;;
51066;SDS011;37112;45.892;-123.962;2022-11-20T09:33:00;5.60;;;3.90;;
51066;SDS011;37112;45.892;-123.962;2022-11-20T09:35:14;7.00;;;4.60;;
51066;SDS011;37112;45.892;-123.962;2022-11-20T09:37:27;5.00;;;4.00;;
51066;SDS011;37112;45.892;-123.962;2022-11-20T09:39:41;5.70;;;3.90;;
51066;SDS011;37112;45.892;-123.962;2022-11-20T09:41:59;9.10;;;4.20;;
51066;SDS011;37112;45.892;-123.962;2022-11-20T09:44:39;8.50;;;4.30;;
51066;SDS011;37112;45.892;-123.962;2022-11-20T09:47:05;9.70;;;5.20;;
51066;SDS011;37112;45.892;-123.962;2022-11-20T09:49:26;11.50;;;6.50;;
51066;SDS011;37112;45.892;-123.962;2022-11-20T09:51:53;9.60;;;6.10;;
51066;SDS011;37112;45.892;-123.962;2022-11-20T09:54:16;10.80;;;6.60;;
51066;SDS011;37112;45.892;-123.962;2022-11-20T09:56:31;7.50;;;5.10;;
51066;SDS011;37112;45.892;-123.962;2022-11-20T09:58:48;7.50;;;4.10;;
51066;SDS011;37112;45.892;-123.962;2022-11-20T10:01:07;7.30;;;3.80;;
51066;SDS011;37112;45.892;-123.962;2022-11-20T10:03:26;9.90;;;5.00;;
51066;SDS011;37112;45.892;-123.962;2022-11-20T10:05:49;8.60;;;4.70;;
51066;SDS011;37112;45.892;-123.962;2022-11-20T10:08:07;5.70;;;3.80;;
51066;SDS011;37112;45.892;-123.962;2022-11-20T10:10:31;6.50;;;3.80;;
51066;SDS011;37112;45.892;-123.962;2022-11-20T10:12:59;6.60;;;4.50;;
51066;SDS011;37112;45.892;-123.962;2022-11-20T10:15:29;7.50;;;3.80;;
51066;SDS011;37112;45.892;-123.962;2022-11-20T10:17:55;7.20;;;4.60;;
51066;SDS011;37112;45.892;-123.962;2022-11-20T10:20:23;5.40;;;3.30;;
51066;SDS011;37112;45.892;-123.962;2022-11-20T10:22:58;6.60;;;3.90;;
51066;SDS011;37112;45.892;-123.962;2022-11-20T10:25:33;5.60;;;4.30;;
51066;SDS011;37112;45.892;-123.962;2022-11-20T10:27:59;9.80;;;4.70;;
51066;SDS011;37112;45.892;-123.962;2022-11-20T10:30:23;6.50;;;5.00;;
51066;SDS011;37112;45.892;-123.962;2022-11-20T10:32:38;6.80;;;4.40;;
51066;SDS011;37112;45.892;-123.962;2022-11-20T10:34:53;6.30;;;4.10;;
51066;SDS011;37112;45.892;-123.962;2022-11-20T10:37:13;6.40;;;4.80;;
51066;SDS011;37112;45.892;-123.962;2022-11-20T10:39:31;7.90;;;4.60;;
51066;SDS011;37112;45.892;-123.962;2022-11-20T10:41:51;6.70;;;4.80;;
51066;SDS011;37112;45.892;-123.962;2022-11-20T10:44:09;6.90;;;5.50;;
51066;SDS011;37112;45.892;-123.962;2022-11-20T10:46:45;6.20;;;4.40;;
51066;SDS011;37112;45.892;-123.962;2022-11-20T10:48:59;5.10;;;3.90;;
51066;SDS011;37112;45.892;-123.962;2022-11-20T10:51:18;6.00;;;4.10;;
51066;SDS011;37112;45.892;-123.962;2022-11-20T10:53:43;10.10;;;4.80;;
51066;SDS011;37112;45.892;-123.962;2022-11-20T10:58:16;6.80;;;3.60;;
51066;SDS011;37112;45.892;-123.962;2022-11-20T11:00:41;5.30;;;3.10;;
51066;SDS011;37112;45.892;-123.962;2022-11-20T11:02:54;5.30;;;3.40;;
51066;SDS011;37112;45.892;-123.962;2022-11-20T11:05:12;4.80;;;4.20;;
51066;SDS011;37112;45.892;-123.962;2022-11-20T11:07:33;7.00;;;4.40;;
51066;SDS011;37112;45.892;-123.962;2022-11-20T11:09:50;6.60;;;3.50;;
51066;SDS011;37112;45.892;-123.962;2022-11-20T11:12:08;5.50;;;3.80;;
51066;SDS011;37112;45.892;-123.962;2022-11-20T11:14:22;5.40;;;4.00;;
51066;SDS011;37112;45.892;-123.962;2022-11-20T11:16:35;4.30;;;3.90;;
51066;SDS011;37112;45.892;-123.962;2022-11-20T11:19:05;6.40;;;4.30;;
51066;SDS011;37112;45.892;-123.962;2022-11-20T11:21:26;6.20;;;3.80;;
51066;SDS011;37112;45.892;-123.962;2022-11-20T11:23:40;7.00;;;3.70;;
51066;SDS011;37112;45.892;-123.962;2022-11-20T11:25:58;5.20;;;3.20;;
51066;SDS011;37112;45.892;-123.962;2022-11-20T11:28:21;5.10;;;3.50;;
51066;SDS011;37112;45.892;-123.962;2022-11-20T11:30:42;9.90;;;3.40;;
51066;SDS011;37112;45.892;-123.962;2022-11-20T11:33:08;6.50;;;3.50;;
51066;SDS011;37112;45.892;-123.962;2022-11-20T11:35:29;4.20;;;2.90;;
51066;SDS011;37112;45.892;-123.962;2022-11-20T11:37:42;5.40;;;3.90;;
51066;SDS011;37112;45.892;-123.962;2022-11-20T11:39:56;5.60;;;3.80;;
51066;SDS011;37112;45.892;-123.962;2022-11-20T11:42:29;4.70;;;3.60;;
51066;SDS011;37112;45.892;-123.962;2022-11-20T11:44:46;6.20;;;3.50;;
51066;SDS011;37112;45.892;-123.962;2022-11-20T11:47:17;5.00;;;3.10;;
51066;SDS011;37112;45.892;-123.962;2022-11-20T11:49:34;4.80;;;3.10;;
51066;SDS011;37112;45.892;-123.962;2022-11-20T11:51:52;5.10;;;3.80;;
51066;SDS011;37112;45.892;-123.962;2022-11-20T11:54:16;4.90;;;3.70;;
51066;SDS011;37112;45.892;-123.962;2022-11-20T11:56:34;7.40;;;3.30;;
51066;SDS011;37112;45.892;-123.962;2022-11-20T11:58:47;7.80;;;4.20;;
51066;SDS011;37112;45.892;-123.962;2022-11-20T12:01:05;6.90;;;3.70;;
51066;SDS011;37112;45.892;-123.962;2022-11-20T12:03:30;4.20;;;2.70;;
51066;SDS011;37112;45.892;-123.962;2022-11-20T12:05:49;6.90;;;4.00;;
51066;SDS011;37112;45.892;-123.962;2022-11-20T12:08:10;5.30;;;3.40;;
51066;SDS011;37112;45.892;-123.962;2022-11-20T12:10:37;5.10;;;3.00;;
51066;SDS011;37112;45.892;-123.962;2022-11-20T12:12:56;5.10;;;3.20;;
51066;SDS011;37112;45.892;-123.962;2022-11-20T12:15:28;4.40;;;3.30;;
51066;SDS011;37112;45.892;-123.962;2022-11-20T12:17:44;5.80;;;3.60;;
51066;SDS011;37112;45.892;-123.962;2022-11-20T12:19:57;5.40;;;4.60;;
51066;SDS011;37112;45.892;-123.962;2022-11-20T12:22:13;3.60;;;3.20;;
51066;SDS011;37112;45.892;-123.962;2022-11-20T12:27:20;5.40;;;3.00;;
51066;SDS011;37112;45.892;-123.962;2022-11-20T12:29:59;4.90;;;3.80;;
51066;SDS011;37112;45.892;-123.962;2022-11-20T12:32:26;4.10;;;3.50;;
51066;SDS011;37112;45.892;-123.962;2022-11-20T12:35:11;5.40;;;2.70;;
51066;SDS011;37112;45.892;-123.962;2022-11-20T12:37:36;5.60;;;3.30;;
51066;SDS011;37112;45.892;-123.962;2022-11-20T12:39:57;5.70;;;3.40;;
51066;SDS011;37112;45.892;-123.962;2022-11-20T12:42:27;4.30;;;2.70;;
51066;SDS011;37112;45.892;-123.962;2022-11-20T12:45:10;5.30;;;3.10;;
51066;SDS011;37112;45.892;-123.962;2022-11-20T12:47:39;7.70;;;3.80;;
51066;SDS011;37112;45.892;-123.962;2022-11-20T12:50:22;6.00;;;3.80;;
51066;SDS011;37112;45.892;-123.962;2022-11-20T12:53:04;8.40;;;4.00;;
51066;SDS011;37112;45.892;-123.962;2022-11-20T12:57:58;6.60;;;3.50;;
51066;SDS011;37112;45.892;-123.962;2022-11-20T13:00:20;6.90;;;2.70;;
51066;SDS011;37112;45.892;-123.962;2022-11-20T13:02:37;8.40;;;4.60;;
51066;SDS011;37112;45.892;-123.962;2022-11-20T13:05:16;10.40;;;5.30;;
51066;SDS011;37112;45.892;-123.962;2022-11-20T13:07:34;10.70;;;5.60;;
51066;SDS011;37112;45.892;-123.962;2022-11-20T13:09:48;12.80;;;6.30;;
51066;SDS011;37112;45.892;-123.962;2022-11-20T13:12:04;7.30;;;4.30;;